Terminal Aerodrome Forecast
Issued by NWS Duluth, MN

Home | Current Version | Previous Version | Text Only | Print | Product List | Glossary On
Versions: 1 2 3 4 5 6 7 8 9 10 11 12 13 14 15 16 17 18 19 20 21 22 23 24 25 26 27 28 29 30
000
FTUS43 KDLH 292300
TAFDLH
TAF
KDLH 292330Z 3000/3024 31015G26KT P6SM SCT045
     FM300100 29010G18KT P6SM SCT045
      TEMPO 3001/3003 BKN045
     FM300300 29009KT P6SM SCT045
     FM301700 25007KT P6SM BKN120
     FM302100 21006KT P6SM VCSH SCT020 OVC050
      TEMPO 3021/3024 5SM -SHRA BKN025 OVC040=

USA.gov is the U.S. government's official web portal to all federal, state and local government web resources and services.